Terminal Aerodrome Forecast
Issued by NWS

Home | Current Version | Previous Version | Text Only | Print | Product List | Glossary On
Versions: 1 2 3 4 5 6 7 8 9 10 11 12 13 14 15 16 17 18 19 20 21 22 23 24 25 26
000
FTUS46 KLOX 032300 RRA
TAFOXR
TAF
KOXR 032350Z 0400/0424 27015G20KT P6SM SKC
     FM040400 29008KT P6SM SCT015
     FM040700 VRB03KT P6SM BKN012
     FM041300 VRB03KT P6SM OVC017
     FM041700 27005KT P6SM BKN022
     FM041900 27014G20KT P6SM SCT027=

USA.gov is the U.S. government's official web portal to all federal, state and local government web resources and services.